sensor_id;sensor_type;location;lat;lon;timestamp;pressure;altitude;pressure_sealevel;temperature;humidity
69318;BME280;56457;52.190;4.440;2023-03-22T00:00:45;100964.03;;;9.59;100.00
69318;BME280;56457;52.190;4.440;2023-03-22T00:01:46;100953.53;;;9.56;100.00
69318;BME280;56457;52.190;4.440;2023-03-22T00:02:46;100952.69;;;9.58;100.00
69318;BME280;56457;52.190;4.440;2023-03-22T00:03:47;100952.69;;;9.58;100.00
69318;BME280;56457;52.190;4.440;2023-03-22T00:04:48;100958.78;;;9.59;100.00
69318;BME280;56457;52.190;4.440;2023-03-22T00:05:48;100949.19;;;9.58;100.00
69318;BME280;56457;52.190;4.440;2023-03-22T00:06:49;100952.69;;;9.57;100.00
69318;BME280;56457;52.190;4.440;2023-03-22T00:07:49;100951.78;;;9.59;100.00
69318;BME280;56457;52.190;4.440;2023-03-22T00:08:53;100954.41;;;9.55;100.00
69318;BME280;56457;52.190;4.440;2023-03-22T00:09:53;100949.19;;;9.53;100.00
69318;BME280;56457;52.190;4.440;2023-03-22T00:10:54;100942.19;;;9.55;100.00
69318;BME280;56457;52.190;4.440;2023-03-22T00:11:54;100942.19;;;9.54;100.00
69318;BME280;56457;52.190;4.440;2023-03-22T00:12:55;100948.31;;;9.53;100.00
69318;BME280;56457;52.190;4.440;2023-03-22T00:13:55;100946.59;;;9.52;100.00
69318;BME280;56457;52.190;4.440;2023-03-22T00:14:57;100950.94;;;9.54;100.00
69318;BME280;56457;52.190;4.440;2023-03-22T00:15:59;100942.19;;;9.54;100.00
69318;BME280;56457;52.190;4.440;2023-03-22T00:17:01;100949.19;;;9.47;100.00
69318;BME280;56457;52.190;4.440;2023-03-22T00:18:02;100951.81;;;9.49;100.00
69318;BME280;56457;52.190;4.440;2023-03-22T00:19:04;100944.81;;;9.43;100.00
69318;BME280;56457;52.190;4.440;2023-03-22T00:20:05;100943.09;;;9.45;100.00
69318;BME280;56457;52.190;4.440;2023-03-22T00:21:08;100943.97;;;9.44;100.00
69318;BME280;56457;52.190;4.440;2023-03-22T00:22:10;100936.97;;;9.43;100.00
69318;BME280;56457;52.190;4.440;2023-03-22T00:23:10;100937.84;;;9.43;100.00
69318;BME280;56457;52.190;4.440;2023-03-22T00:24:11;100936.13;;;9.39;100.00
69318;BME280;56457;52.190;4.440;2023-03-22T00:25:11;100931.75;;;9.37;100.00
69318;BME280;56457;52.190;4.440;2023-03-22T00:26:12;100936.97;;;9.37;100.00
69318;BME280;56457;52.190;4.440;2023-03-22T00:27:13;100937.88;;;9.39;100.00
69318;BME280;56457;52.190;4.440;2023-03-22T00:28:14;100930.88;;;9.39;100.00
69318;BME280;56457;52.190;4.440;2023-03-22T00:29:15;100930.91;;;9.32;100.00
69318;BME280;56457;52.190;4.440;2023-03-22T00:30:15;100932.63;;;9.36;100.00
69318;BME280;56457;52.190;4.440;2023-03-22T00:31:16;100934.38;;;9.35;100.00
69318;BME280;56457;52.190;4.440;2023-03-22T00:32:16;100922.13;;;9.37;100.00
69318;BME280;56457;52.190;4.440;2023-03-22T00:33:17;100930.88;;;9.36;100.00
69318;BME280;56457;52.190;4.440;2023-03-22T00:34:17;100927.41;;;9.34;100.00
69318;BME280;56457;52.190;4.440;2023-03-22T00:35:17;100925.63;;;9.36;100.00
69318;BME280;56457;52.190;4.440;2023-03-22T00:36:17;100923.03;;;9.35;100.00
69318;BME280;56457;52.190;4.440;2023-03-22T00:37:18;100923.03;;;9.35;100.00
69318;BME280;56457;52.190;4.440;2023-03-22T00:38:18;100926.50;;;9.37;100.00
69318;BME280;56457;52.190;4.440;2023-03-22T00:39:19;100929.13;;;9.40;100.00
69318;BME280;56457;52.190;4.440;2023-03-22T00:40:19;100930.00;;;9.39;100.00
69318;BME280;56457;52.190;4.440;2023-03-22T00:41:20;100927.41;;;9.34;100.00
69318;BME280;56457;52.190;4.440;2023-03-22T00:42:20;100921.28;;;9.31;100.00
69318;BME280;56457;52.190;4.440;2023-03-22T00:43:21;100929.16;;;9.32;100.00
69318;BME280;56457;52.190;4.440;2023-03-22T00:44:21;100924.75;;;9.36;100.00
69318;BME280;56457;52.190;4.440;2023-03-22T00:45:21;100919.53;;;9.39;100.00
69318;BME280;56457;52.190;4.440;2023-03-22T00:46:22;100917.78;;;9.41;100.00
69318;BME280;56457;52.190;4.440;2023-03-22T00:47:22;100918.66;;;9.37;100.00
69318;BME280;56457;52.190;4.440;2023-03-22T00:48:22;100916.03;;;9.43;100.00
69318;BME280;56457;52.190;4.440;2023-03-22T00:49:23;100916.91;;;9.40;100.00
69318;BME280;56457;52.190;4.440;2023-03-22T00:50:24;100916.03;;;9.43;100.00
69318;BME280;56457;52.190;4.440;2023-03-22T00:51:25;100913.44;;;9.40;100.00
69318;BME280;56457;52.190;4.440;2023-03-22T00:52:25;100904.69;;;9.39;100.00
69318;BME280;56457;52.190;4.440;2023-03-22T00:53:26;100909.03;;;9.43;100.00
69318;BME280;56457;52.190;4.440;2023-03-22T00:54:28;100905.56;;;9.40;100.00
69318;BME280;56457;52.190;4.440;2023-03-22T00:55:28;100902.06;;;9.41;100.00
69318;BME280;56457;52.190;4.440;2023-03-22T00:56:29;100888.97;;;9.42;100.00
69318;BME280;56457;52.190;4.440;2023-03-22T00:57:29;100890.72;;;9.40;100.00
69318;BME280;56457;52.190;4.440;2023-03-22T00:58:29;100879.38;;;9.40;100.00
69318;BME280;56457;52.190;4.440;2023-03-22T00:59:30;100891.63;;;9.38;100.00
69318;BME280;56457;52.190;4.440;2023-03-22T01:00:30;100889.84;;;9.40;100.00
69318;BME280;56457;52.190;4.440;2023-03-22T01:01:31;100888.97;;;9.42;100.00
69318;BME280;56457;52.190;4.440;2023-03-22T01:02:31;100889.84;;;9.43;100.00
69318;BME280;56457;52.190;4.440;2023-03-22T01:03:33;100885.50;;;9.39;100.00
69318;BME280;56457;52.190;4.440;2023-03-22T01:04:34;100881.16;;;9.38;100.00
69318;BME280;56457;52.190;4.440;2023-03-22T01:05:34;100883.75;;;9.36;100.00
69318;BME280;56457;52.190;4.440;2023-03-22T01:06:35;100882.88;;;9.37;100.00
69318;BME280;56457;52.190;4.440;2023-03-22T01:07:35;100879.38;;;9.37;100.00
69318;BME280;56457;52.190;4.440;2023-03-22T01:08:38;100879.38;;;9.40;100.00
69318;BME280;56457;52.190;4.440;2023-03-22T01:09:39;100877.66;;;9.39;100.00
69318;BME280;56457;52.190;4.440;2023-03-22T01:10:40;100875.91;;;9.38;100.00
69318;BME280;56457;52.190;4.440;2023-03-22T01:11:41;100875.03;;;9.34;100.00
69318;BME280;56457;52.190;4.440;2023-03-22T01:12:42;100871.53;;;9.34;100.00
69318;BME280;56457;52.190;4.440;2023-03-22T01:13:42;100870.69;;;9.32;100.00
69318;BME280;56457;52.190;4.440;2023-03-22T01:14:43;100875.91;;;9.30;100.00
69318;BME280;56457;52.190;4.440;2023-03-22T01:15:43;100869.78;;;9.31;100.00
69318;BME280;56457;52.190;4.440;2023-03-22T01:16:44;100869.78;;;9.36;100.00
69318;BME280;56457;52.190;4.440;2023-03-22T01:17:44;100869.78;;;9.31;100.00
69318;BME280;56457;52.190;4.440;2023-03-22T01:18:45;100867.19;;;9.33;100.00
69318;BME280;56457;52.190;4.440;2023-03-22T01:19:45;100871.53;;;9.31;100.00
69318;BME280;56457;52.190;4.440;2023-03-22T01:20:45;100861.09;;;9.26;100.00
69318;BME280;56457;52.190;4.440;2023-03-22T01:21:46;100859.31;;;9.30;100.00
69318;BME280;56457;52.190;4.440;2023-03-22T01:22:46;100847.97;;;9.31;100.00
69318;BME280;56457;52.190;4.440;2023-03-22T01:23:46;100848.84;;;9.31;100.00
69318;BME280;56457;52.190;4.440;2023-03-22T01:24:47;100841.88;;;9.30;100.00
69318;BME280;56457;52.190;4.440;2023-03-22T01:25:47;100841.00;;;9.33;100.00
69318;BME280;56457;52.190;4.440;2023-03-22T01:26:48;100845.34;;;9.37;100.00
69318;BME280;56457;52.190;4.440;2023-03-22T01:27:48;100845.34;;;9.35;100.00
69318;BME280;56457;52.190;4.440;2023-03-22T01:28:49;100843.63;;;9.33;100.00
69318;BME280;56457;52.190;4.440;2023-03-22T01:29:49;100840.13;;;9.38;100.00
69318;BME280;56457;52.190;4.440;2023-03-22T01:30:49;100839.25;;;9.38;100.00
69318;BME280;56457;52.190;4.440;2023-03-22T01:31:50;100830.50;;;9.37;100.00
69318;BME280;56457;52.190;4.440;2023-03-22T01:32:51;100834.00;;;9.38;100.00
69318;BME280;56457;52.190;4.440;2023-03-22T01:33:51;100832.25;;;9.37;100.00
69318;BME280;56457;52.190;4.440;2023-03-22T01:34:51;100828.78;;;9.38;100.00
69318;BME280;56457;52.190;4.440;2023-03-22T01:35:52;100830.50;;;9.36;100.00
69318;BME280;56457;52.190;4.440;2023-03-22T01:36:52;100827.03;;;9.38;100.00
69318;BME280;56457;52.190;4.440;2023-03-22T01:37:53;100820.03;;;9.39;100.00
69318;BME280;56457;52.190;4.440;2023-03-22T01:38:53;100824.38;;;9.37;100.00
69318;BME280;56457;52.190;4.440;2023-03-22T01:39:53;100814.81;;;9.39;100.00
69318;BME280;56457;52.190;4.440;2023-03-22T01:40:54;100817.41;;;9.39;100.00
69318;BME280;56457;52.190;4.440;2023-03-22T01:41:54;100810.44;;;9.39;100.00
69318;BME280;56457;52.190;4.440;2023-03-22T01:42:55;100808.69;;;9.37;100.00
69318;BME280;56457;52.190;4.440;2023-03-22T01:44:15;100807.84;;;9.38;100.00
69318;BME280;56457;52.190;4.440;2023-03-22T01:46:25;100808.69;;;9.37;100.00
69318;BME280;56457;52.190;4.440;2023-03-22T01:47:25;100798.22;;;9.35;100.00
69318;BME280;56457;52.190;4.440;2023-03-22T01:48:29;100796.47;;;9.36;100.00
69318;BME280;56457;52.190;4.440;2023-03-22T01:49:33;100802.59;;;9.33;100.00
69318;BME280;56457;52.190;4.440;2023-03-22T01:50:35;100801.72;;;9.34;100.00
69318;BME280;56457;52.190;4.440;2023-03-22T01:51:36;100799.09;;;9.36;100.00
69318;BME280;56457;52.190;4.440;2023-03-22T01:52:37;100798.22;;;9.37;100.00
69318;BME280;56457;52.190;4.440;2023-03-22T01:53:41;100790.38;;;9.35;100.00
69318;BME280;56457;52.190;4.440;2023-03-22T01:54:44;100794.75;;;9.38;100.00
69318;BME280;56457;52.190;4.440;2023-03-22T01:55:46;100792.97;;;9.37;100.00
69318;BME280;56457;52.190;4.440;2023-03-22T01:56:46;100792.09;;;9.36;100.00
69318;BME280;56457;52.190;4.440;2023-03-22T01:57:47;100789.47;;;9.41;100.00
69318;BME280;56457;52.190;4.440;2023-03-22T01:58:48;100790.34;;;9.40;100.00
69318;BME280;56457;52.190;4.440;2023-03-22T01:59:49;100786.84;;;9.42;100.00
69318;BME280;56457;52.190;4.440;2023-03-22T02:00:50;100791.19;;;9.43;100.00
69318;BME280;56457;52.190;4.440;2023-03-22T02:01:51;100789.47;;;9.41;100.00
69318;BME280;56457;52.190;4.440;2023-03-22T02:02:51;100786.00;;;9.40;100.00
69318;BME280;56457;52.190;4.440;2023-03-22T02:04:03;100790.31;;;9.43;100.00
69318;BME280;56457;52.190;4.440;2023-03-22T02:05:06;100792.94;;;9.43;100.00
69318;BME280;56457;52.190;4.440;2023-03-22T02:06:07;100792.09;;;9.39;100.00
69318;BME280;56457;52.190;4.440;2023-03-22T02:07:08;100780.75;;;9.40;100.00
69318;BME280;56457;52.190;4.440;2023-03-22T02:08:09;100779.03;;;9.38;100.00
69318;BME280;56457;52.190;4.440;2023-03-22T02:09:14;100778.16;;;9.36;100.00
69318;BME280;56457;52.190;4.440;2023-03-22T02:10:22;100780.78;;;9.34;100.00
69318;BME280;56457;52.190;4.440;2023-03-22T02:11:45;100784.25;;;9.35;100.00
69318;BME280;56457;52.190;4.440;2023-03-22T02:16:06;100767.69;;;9.31;100.00
69318;BME280;56457;52.190;4.440;2023-03-22T02:16:57;100765.97;;;9.32;100.00
69318;BME280;56457;52.190;4.440;2023-03-22T02:29:43;100757.09;;;9.56;100.00
69318;BME280;56457;52.190;4.440;2023-03-22T02:30:54;100754.50;;;9.57;100.00
69318;BME280;56457;52.190;4.440;2023-03-22T02:33:23;100751.84;;;9.60;100.00
69318;BME280;56457;52.190;4.440;2023-03-22T02:35:41;100750.94;;;9.67;100.00
69318;BME280;56457;52.190;4.440;2023-03-22T02:39:58;100743.97;;;9.66;100.00
69318;BME280;56457;52.190;4.440;2023-03-22T02:43:11;100743.06;;;9.67;100.00
69318;BME280;56457;52.190;4.440;2023-03-22T02:44:33;100738.72;;;9.65;100.00
69318;BME280;56457;52.190;4.440;2023-03-22T02:45:40;100736.09;;;9.69;100.00
69318;BME280;56457;52.190;4.440;2023-03-22T02:46:45;100742.19;;;9.68;100.00
69318;BME280;56457;52.190;4.440;2023-03-22T02:48:53;100742.19;;;9.68;100.00
69318;BME280;56457;52.190;4.440;2023-03-22T02:49:55;100733.47;;;9.66;100.00
69318;BME280;56457;52.190;4.440;2023-03-22T02:50:59;100731.75;;;9.62;100.00
69318;BME280;56457;52.190;4.440;2023-03-22T02:52:08;100737.88;;;9.64;100.00
69318;BME280;56457;52.190;4.440;2023-03-22T02:53:14;100732.59;;;9.69;100.00
69318;BME280;56457;52.190;4.440;2023-03-22T02:55:23;100719.47;;;9.74;100.00
69318;BME280;56457;52.190;4.440;2023-03-22T02:56:30;100722.97;;;9.73;100.00
69318;BME280;56457;52.190;4.440;2023-03-22T02:57:33;100726.47;;;9.68;100.00
69318;BME280;56457;52.190;4.440;2023-03-22T02:58:37;100727.34;;;9.70;100.00
69318;BME280;56457;52.190;4.440;2023-03-22T02:59:44;100722.97;;;9.68;100.00
69318;BME280;56457;52.190;4.440;2023-03-22T03:00:45;100719.50;;;9.70;100.00
69318;BME280;56457;52.190;4.440;2023-03-22T03:01:49;100715.09;;;9.73;100.00
69318;BME280;56457;52.190;4.440;2023-03-22T03:02:51;100715.09;;;9.74;100.00
69318;BME280;56457;52.190;4.440;2023-03-22T03:03:53;100714.22;;;9.75;100.00
69318;BME280;56457;52.190;4.440;2023-03-22T03:04:55;100716.88;;;9.70;100.00
69318;BME280;56457;52.190;4.440;2023-03-22T03:05:58;100709.91;;;9.69;100.00
69318;BME280;56457;52.190;4.440;2023-03-22T03:07:01;100716.00;;;9.71;100.00
69318;BME280;56457;52.190;4.440;2023-03-22T03:08:03;100713.34;;;9.75;100.00
69318;BME280;56457;52.190;4.440;2023-03-22T03:09:05;100711.63;;;9.72;100.00
69318;BME280;56457;52.190;4.440;2023-03-22T03:10:06;100711.63;;;9.70;100.00
69318;BME280;56457;52.190;4.440;2023-03-22T03:11:07;100715.13;;;9.69;100.00
69318;BME280;56457;52.190;4.440;2023-03-22T03:12:17;100709.91;;;9.66;100.00
69318;BME280;56457;52.190;4.440;2023-03-22T03:13:19;100707.28;;;9.69;100.00
69318;BME280;56457;52.190;4.440;2023-03-22T03:14:21;100705.50;;;9.68;100.00
69318;BME280;56457;52.190;4.440;2023-03-22T03:15:21;100701.16;;;9.67;100.00
69318;BME280;56457;52.190;4.440;2023-03-22T03:16:24;100707.25;;;9.71;100.00
69318;BME280;56457;52.190;4.440;2023-03-22T03:18:36;100705.47;;;9.75;100.00
69318;BME280;56457;52.190;4.440;2023-03-22T03:21:53;100699.38;;;9.73;100.00
69318;BME280;56457;52.190;4.440;2023-03-22T03:23:44;100708.13;;;9.73;100.00
69318;BME280;56457;52.190;4.440;2023-03-22T03:24:26;100698.56;;;9.69;100.00
69318;BME280;56457;52.190;4.440;2023-03-22T03:26:37;100700.25;;;9.73;100.00
69318;BME280;56457;52.190;4.440;2023-03-22T03:27:49;100697.63;;;9.75;100.00
69318;BME280;56457;52.190;4.440;2023-03-22T03:28:56;100699.38;;;9.73;100.00
69318;BME280;56457;52.190;4.440;2023-03-22T03:31:04;100696.75;;;9.74;100.00
69318;BME280;56457;52.190;4.440;2023-03-22T03:33:14;100697.66;;;9.70;100.00
69318;BME280;56457;52.190;4.440;2023-03-22T03:34:35;100696.81;;;9.69;100.00
69318;BME280;56457;52.190;4.440;2023-03-22T03:35:43;100700.28;;;9.71;100.00
69318;BME280;56457;52.190;4.440;2023-03-22T03:36:49;100693.25;;;9.78;100.00
69318;BME280;56457;52.190;4.440;2023-03-22T03:37:57;100699.38;;;9.76;100.00
69318;BME280;56457;52.190;4.440;2023-03-22T03:39:00;100696.78;;;9.71;100.00
69318;BME280;56457;52.190;4.440;2023-03-22T03:40:15;100696.81;;;9.69;100.00
69318;BME280;56457;52.190;4.440;2023-03-22T03:41:18;100693.28;;;9.72;100.00
69318;BME280;56457;52.190;4.440;2023-03-22T03:42:19;100694.19;;;9.69;100.00
69318;BME280;56457;52.190;4.440;2023-03-22T03:43:22;100696.78;;;9.71;100.00
69318;BME280;56457;52.190;4.440;2023-03-22T03:44:24;100688.94;;;9.69;100.00
69318;BME280;56457;52.190;4.440;2023-03-22T03:45:25;100690.69;;;9.67;100.00
69318;BME280;56457;52.190;4.440;2023-03-22T03:46:25;100686.31;;;9.66;100.00
69318;BME280;56457;52.190;4.440;2023-03-22T03:47:28;100683.69;;;9.69;100.00
69318;BME280;56457;52.190;4.440;2023-03-22T03:48:29;100698.56;;;9.69;100.00
69318;BME280;56457;52.190;4.440;2023-03-22T03:49:30;100696.81;;;9.69;100.00
69318;BME280;56457;52.190;4.440;2023-03-22T03:50:30;100699.41;;;9.71;100.00
69318;BME280;56457;52.190;4.440;2023-03-22T03:51:31;100696.81;;;9.69;100.00
69318;BME280;56457;52.190;4.440;2023-03-22T03:52:32;100695.06;;;9.65;100.00
69318;BME280;56457;52.190;4.440;2023-03-22T03:53:32;100687.22;;;9.65;100.00
69318;BME280;56457;52.190;4.440;2023-03-22T03:54:32;100689.84;;;9.64;100.00
69318;BME280;56457;52.190;4.440;2023-03-22T03:55:33;100697.72;;;9.59;100.00
69318;BME280;56457;52.190;4.440;2023-03-22T03:56:33;100686.34;;;9.62;100.00
69318;BME280;56457;52.190;4.440;2023-03-22T03:57:34;100696.81;;;9.62;100.00
69318;BME280;56457;52.190;4.440;2023-03-22T03:58:34;100696.84;;;9.60;100.00
69318;BME280;56457;52.190;4.440;2023-03-22T03:59:34;100696.84;;;9.60;100.00
69318;BME280;56457;52.190;4.440;2023-03-22T04:00:35;100696.84;;;9.59;100.00
69318;BME280;56457;52.190;4.440;2023-03-22T04:01:35;100695.13;;;9.58;100.00
69318;BME280;56457;52.190;4.440;2023-03-22T04:02:36;100694.25;;;9.59;100.00
69318;BME280;56457;52.190;4.440;2023-03-22T04:03:36;100690.72;;;9.60;100.00
69318;BME280;56457;52.190;4.440;2023-03-22T04:04:37;100690.75;;;9.58;100.00
69318;BME280;56457;52.190;4.440;2023-03-22T04:05:37;100682.91;;;9.58;100.00
69318;BME280;56457;52.190;4.440;2023-03-22T04:06:38;100685.50;;;9.58;100.00
69318;BME280;56457;52.190;4.440;2023-03-22T04:07:39;100683.78;;;9.57;100.00
69318;BME280;56457;52.190;4.440;2023-03-22T04:08:39;100686.38;;;9.60;100.00
69318;BME280;56457;52.190;4.440;2023-03-22T04:09:40;100688.06;;;9.66;100.00
69318;BME280;56457;52.190;4.440;2023-03-22T04:10:41;100679.38;;;9.61;100.00
69318;BME280;56457;52.190;4.440;2023-03-22T04:11:41;100688.97;;;9.60;100.00
69318;BME280;56457;52.190;4.440;2023-03-22T04:12:41;100690.72;;;9.61;100.00
69318;BME280;56457;52.190;4.440;2023-03-22T04:13:42;100682.88;;;9.63;100.00
69318;BME280;56457;52.190;4.440;2023-03-22T04:14:42;100683.75;;;9.63;100.00
69318;BME280;56457;52.190;4.440;2023-03-22T04:15:43;100689.84;;;9.65;100.00
69318;BME280;56457;52.190;4.440;2023-03-22T04:16:44;100681.97;;;9.62;100.00
69318;BME280;56457;52.190;4.440;2023-03-22T04:17:44;100679.38;;;9.61;100.00
69318;BME280;56457;52.190;4.440;2023-03-22T04:18:48;100675.91;;;9.59;100.00
69318;BME280;56457;52.190;4.440;2023-03-22T04:19:48;100683.75;;;9.63;100.00
69318;BME280;56457;52.190;4.440;2023-03-22T04:20:49;100689.84;;;9.65;100.00
69318;BME280;56457;52.190;4.440;2023-03-22T04:21:52;100684.59;;;9.64;100.00
69318;BME280;56457;52.190;4.440;2023-03-22T04:22:52;100687.22;;;9.62;100.00
69318;BME280;56457;52.190;4.440;2023-03-22T04:23:53;100683.75;;;9.63;100.00
69318;BME280;56457;52.190;4.440;2023-03-22T04:24:54;100684.59;;;9.64;100.00
69318;BME280;56457;52.190;4.440;2023-03-22T04:25:54;100681.97;;;9.65;100.00
69318;BME280;56457;52.190;4.440;2023-03-22T04:26:58;100682.84;;;9.64;100.00
69318;BME280;56457;52.190;4.440;2023-03-22T04:27:58;100690.72;;;9.61;100.00
69318;BME280;56457;52.190;4.440;2023-03-22T04:28:59;100688.94;;;9.66;100.00
69318;BME280;56457;52.190;4.440;2023-03-22T04:30:02;100678.47;;;9.66;100.00
69318;BME280;56457;52.190;4.440;2023-03-22T04:31:04;100682.81;;;9.67;100.00
69318;BME280;56457;52.190;4.440;2023-03-22T04:32:04;100675.84;;;9.69;100.00
69318;BME280;56457;52.190;4.440;2023-03-22T04:33:04;100675.84;;;9.68;100.00
69318;BME280;56457;52.190;4.440;2023-03-22T04:34:05;100668.88;;;9.65;100.00
69318;BME280;56457;52.190;4.440;2023-03-22T04:35:06;100676.72;;;9.65;100.00
69318;BME280;56457;52.190;4.440;2023-03-22T04:36:07;100672.34;;;9.66;100.00
69318;BME280;56457;52.190;4.440;2023-03-22T04:37:09;100669.75;;;9.69;100.00
69318;BME280;56457;52.190;4.440;2023-03-22T04:38:09;100666.25;;;9.65;100.00
69318;BME280;56457;52.190;4.440;2023-03-22T04:39:11;100670.59;;;9.68;100.00
69318;BME280;56457;52.190;4.440;2023-03-22T04:40:11;100670.59;;;9.69;100.00
69318;BME280;56457;52.190;4.440;2023-03-22T04:41:16;100662.75;;;9.69;100.00
69318;BME280;56457;52.190;4.440;2023-03-22T04:42:17;100660.97;;;9.71;100.00
69318;BME280;56457;52.190;4.440;2023-03-22T04:43:17;100664.47;;;9.70;100.00
69318;BME280;56457;52.190;4.440;2023-03-22T04:44:18;100665.34;;;9.71;100.00
69318;BME280;56457;52.190;4.440;2023-03-22T04:45:18;100655.72;;;9.71;100.00
69318;BME280;56457;52.190;4.440;2023-03-22T04:46:18;100656.59;;;9.72;100.00
69318;BME280;56457;52.190;4.440;2023-03-22T04:47:20;100664.47;;;9.72;100.00
69318;BME280;56457;52.190;4.440;2023-03-22T04:48:20;100653.97;;;9.72;100.00
69318;BME280;56457;52.190;4.440;2023-03-22T04:49:21;100650.50;;;9.71;100.00
69318;BME280;56457;52.190;4.440;2023-03-22T04:50:21;100659.19;;;9.74;100.00
69318;BME280;56457;52.190;4.440;2023-03-22T04:51:21;100651.38;;;9.70;100.00
69318;BME280;56457;52.190;4.440;2023-03-22T04:52:22;100648.78;;;9.69;100.00
69318;BME280;56457;52.190;4.440;2023-03-22T04:53:22;100650.47;;;9.75;100.00
69318;BME280;56457;52.190;4.440;2023-03-22T04:54:26;100653.06;;;9.78;100.00
69318;BME280;56457;52.190;4.440;2023-03-22T04:55:26;100645.16;;;9.81;100.00
69318;BME280;56457;52.190;4.440;2023-03-22T04:56:26;100650.44;;;9.78;100.00
69318;BME280;56457;52.190;4.440;2023-03-22T04:57:27;100649.59;;;9.74;100.00
69318;BME280;56457;52.190;4.440;2023-03-22T04:58:27;100649.56;;;9.79;100.00
69318;BME280;56457;52.190;4.440;2023-03-22T04:59:27;100644.31;;;9.80;100.00
69318;BME280;56457;52.190;4.440;2023-03-22T05:00:28;100639.09;;;9.77;100.00
69318;BME280;56457;52.190;4.440;2023-03-22T05:01:29;100640.00;;;9.73;100.00
69318;BME280;56457;52.190;4.440;2023-03-22T05:02:29;100642.59;;;9.76;100.00
69318;BME280;56457;52.190;4.440;2023-03-22T05:03:30;100645.22;;;9.75;100.00
69318;BME280;56457;52.190;4.440;2023-03-22T05:04:30;100642.59;;;9.76;100.00
69318;BME280;56457;52.190;4.440;2023-03-22T05:05:31;100651.34;;;9.75;100.00
69318;BME280;56457;52.190;4.440;2023-03-22T05:06:31;100644.34;;;9.77;100.00
69318;BME280;56457;52.190;4.440;2023-03-22T05:07:32;100640.00;;;9.76;100.00
69318;BME280;56457;52.190;4.440;2023-03-22T05:08:33;100641.72;;;9.74;100.00
69318;BME280;56457;52.190;4.440;2023-03-22T05:09:33;100641.75;;;9.76;100.00
69318;BME280;56457;52.190;4.440;2023-03-22T05:10:33;100636.47;;;9.77;100.00
69318;BME280;56457;52.190;4.440;2023-03-22T05:11:37;100633.88;;;9.76;100.00
69318;BME280;56457;52.190;4.440;2023-03-22T05:12:39;100632.13;;;9.76;100.00
69318;BME280;56457;52.190;4.440;2023-03-22T05:13:39;100639.09;;;9.77;100.00
69318;BME280;56457;52.190;4.440;2023-03-22T05:14:40;100637.34;;;9.78;100.00
69318;BME280;56457;52.190;4.440;2023-03-22T05:15:40;100629.44;;;9.81;100.00
69318;BME280;56457;52.190;4.440;2023-03-22T05:16:41;100640.84;;;9.78;100.00
69318;BME280;56457;52.190;4.440;2023-03-22T05:17:42;100631.25;;;9.76;100.00
69318;BME280;56457;52.190;4.440;2023-03-22T05:18:42;100635.63;;;9.74;100.00
69318;BME280;56457;52.190;4.440;2023-03-22T05:19:44;100633.00;;;9.74;100.00
69318;BME280;56457;52.190;4.440;2023-03-22T05:20:45;100629.50;;;9.76;100.00
69318;BME280;56457;52.190;4.440;2023-03-22T05:21:46;100626.88;;;9.75;100.00
69318;BME280;56457;52.190;4.440;2023-03-22T05:22:46;100636.50;;;9.73;100.00
69318;BME280;56457;52.190;4.440;2023-03-22T05:23:49;100617.28;;;9.74;100.00
69318;BME280;56457;52.190;4.440;2023-03-22T05:24:49;100620.78;;;9.73;100.00
69318;BME280;56457;52.190;4.440;2023-03-22T05:25:50;100612.97;;;9.69;100.00
69318;BME280;56457;52.190;4.440;2023-03-22T05:26:51;100615.56;;;9.73;100.00
69318;BME280;56457;52.190;4.440;2023-03-22T05:27:54;100623.44;;;9.71;100.00
69318;BME280;56457;52.190;4.440;2023-03-22T05:29:00;100613.81;;;9.68;100.00
69318;BME280;56457;52.190;4.440;2023-03-22T05:30:00;100613.81;;;9.71;100.00
69318;BME280;56457;52.190;4.440;2023-03-22T05:31:01;100623.44;;;9.71;100.00
69318;BME280;56457;52.190;4.440;2023-03-22T05:32:02;100606.81;;;9.74;100.00
69318;BME280;56457;52.190;4.440;2023-03-22T05:33:03;100611.19;;;9.73;100.00
69318;BME280;56457;52.190;4.440;2023-03-22T05:34:03;100612.94;;;9.73;100.00
69318;BME280;56457;52.190;4.440;2023-03-22T05:35:04;100608.53;;;9.75;100.00
69318;BME280;56457;52.190;4.440;2023-03-22T05:36:06;100601.59;;;9.75;100.00
69318;BME280;56457;52.190;4.440;2023-03-22T05:37:06;100605.91;;;9.75;100.00
69318;BME280;56457;52.190;4.440;2023-03-22T05:38:07;100612.91;;;9.77;100.00
69318;BME280;56457;52.190;4.440;2023-03-22T05:39:08;100600.66;;;9.79;100.00
69318;BME280;56457;52.190;4.440;2023-03-22T05:40:08;100599.78;;;9.79;100.00
69318;BME280;56457;52.190;4.440;2023-03-22T05:41:09;100599.81;;;9.77;100.00
69318;BME280;56457;52.190;4.440;2023-03-22T05:42:10;100597.13;;;9.83;100.00
69318;BME280;56457;52.190;4.440;2023-03-22T05:43:10;100600.63;;;9.81;100.00
69318;BME280;56457;52.190;4.440;2023-03-22T05:44:10;100595.38;;;9.84;100.00
69318;BME280;56457;52.190;4.440;2023-03-22T05:45:11;100594.53;;;9.82;100.00
69318;BME280;56457;52.190;4.440;2023-03-22T05:46:11;100596.19;;;9.87;100.00
69318;BME280;56457;52.190;4.440;2023-03-22T05:47:11;100591.91;;;9.80;100.00
69318;BME280;56457;52.190;4.440;2023-03-22T05:48:12;100581.47;;;9.77;100.00
69318;BME280;56457;52.190;4.440;2023-03-22T05:49:12;100587.59;;;9.75;100.00
69318;BME280;56457;52.190;4.440;2023-03-22T05:50:13;100577.09;;;9.75;100.00
69318;BME280;56457;52.190;4.440;2023-03-22T05:51:14;100594.53;;;9.80;100.00
69318;BME280;56457;52.190;4.440;2023-03-22T05:52:16;100596.31;;;9.77;100.00
69318;BME280;56457;52.190;4.440;2023-03-22T05:53:17;100584.09;;;9.77;100.00
69318;BME280;56457;52.190;4.440;2023-03-22T05:54:17;100591.94;;;9.77;100.00
69318;BME280;56457;52.190;4.440;2023-03-22T05:55:17;100597.22;;;9.76;100.00
69318;BME280;56457;52.190;4.440;2023-03-22T05:56:18;100596.31;;;9.74;100.00